• Join FlightAware (Why Join?)
  • Login
  • US Flag 
11:07AM EDT


 

Airport Tracker/Info


-or-


 

Live Flight TrackerFlight Track Log ✈ FDX1958 ✈ 03-Jul-2013 ✈ KSYR - KBTV

Flight Track Log - Related Links

Times and Time Zones

All times are in EDT time to prevent confusion due to time zone crossing. See the FDX1958 flight status page for this flight to view local times or setup timezone preferences in your user account.

Time Position Orientation Groundspeed Altitude Reporting Facility
EDT Latitude Longitude Course Direction KTS MPH feet Rate Location/Type
07:12AM 43.1270 -76.1450 353° North 207 238 2,400  Level FlightAware
07:12AM 43.1440 -76.1290 34° Northeast 245 282 3,100 2,280 Climbing FlightAware
07:13AM 43.1590 -76.0980 56° Northeast 260 299 4,100 2,520 Climbing FlightAware
07:13AM 43.1690 -76.0750 59° Northeast 274 315 4,800 3,000 Climbing FlightAware
07:13AM 43.1880 -76.0320 59° Northeast 289 333 6,300 3,360 Climbing FlightAware
07:14AM 43.2000 -76.0070 57° Northeast 294 338 7,300 3,540 Climbing FlightAware
07:14AM 43.2210 -75.9620 57° Northeast 304 350 8,900 3,300 Climbing FlightAware
07:14AM 43.2300 -75.9430 57° Northeast 308 354 9,500 3,000 Climbing FlightAware
07:14AM 43.2360 -75.9290 60° Northeast 312 359 9,900 1,200 Climbing FlightAware
07:15AM 43.2810 -75.8330 57° Northeast 392 451 10,700 1,680 Climbing FlightAware
07:16AM 43.3160 -75.7560 58° Northeast 405 466 12,400 2,580 Climbing FlightAware
07:16AM 43.3510 -75.6800 58° Northeast 421 484 13,800 2,700 Climbing FlightAware
07:17AM 43.3810 -75.6140 58° Northeast 424 488 15,200 2,460 Climbing FlightAware
07:18AM 43.4230 -75.5220 58° Northeast 443 510 16,600 2,280 Climbing FlightAware
07:18AM 43.4530 -75.4550 58° Northeast 445 512 17,800 2,280 Climbing FlightAware
07:19AM 43.5120 -75.3280 57° Northeast 460 529 19,700 2,040 Climbing FlightAware
07:20AM 43.5580 -75.2250 58° Northeast 467 537 21,000 960 Climbing FlightAware
07:20AM 43.6040 -75.1240 58° Northeast 468 539 21,000  Level FlightAware
07:21AM 43.6490 -75.0230 58° Northeast 464 534 21,000  Level FlightAware
07:22AM 43.6990 -74.9110 58° Northeast 467 537 21,000  Level FlightAware
07:22AM 43.7440 -74.8110 58° Northeast 467 537 21,000 -780 Level FlightAware
07:23AM 43.7810 -74.7260 59° Northeast 469 540 20,100 -1,200 Descending FlightAware
07:24AM 43.8650 -74.5350 59° Northeast 470 541 19,000 -600 Descending FlightAware
07:25AM 43.9140 -74.4240 58° Northeast 471 542 19,000 -360 Level FlightAware
07:26AM 43.9770 -74.2820 58° Northeast 466 536 18,500 -1,740 Descending FlightAware
07:27AM 44.0280 -74.1640 59° Northeast 449 517 16,000 -3,300 Descending FlightAware
07:27AM 44.0780 -74.0480 59° Northeast 424 488 13,300 -2,940 Descending FlightAware
07:28AM 44.1190 -73.9510 59° Northeast 410 472 11,700 -1,800 Descending FlightAware
07:29AM 44.1590 -73.8590 59° Northeast 380 437 10,800 -1,140 Descending FlightAware
07:29AM 44.2040 -73.7870 49° Northeast 339 390 10,200 -600 Descending FlightAware
07:30AM 44.2500 -73.7380 37° Northeast 305 351 10,000 -420 Descending FlightAware
07:30AM 44.2720 -73.7130 39° Northeast 291 335 9,800 -840 Descending FlightAware
07:31AM 44.2830 -73.7000 40° Northeast 287 330 9,600 -2,040 Descending FlightAware
07:31AM 44.3170 -73.6640 37° Northeast 285 328 8,400 -2,160 Descending FlightAware
07:32AM 44.3610 -73.6150 39° Northeast 284 327 6,900 -2,040 Descending FlightAware
07:32AM 44.3870 -73.5870 38° Northeast 275 316 6,100 -1,980 Descending FlightAware
07:33AM 44.4030 -73.5700 37° Northeast 272 313 5,600 -1,680 Descending FlightAware
07:33AM 44.4230 -73.5460 41° Northeast 270 311 5,000 -720 Descending FlightAware
07:33AM 44.4460 -73.5200 39° Northeast 270 311 5,000 -900 Level FlightAware
07:35AM 44.5153 -73.4417 39° Northeast 270 311 3,500 -1,080 Descending Boston Center
07:36AM 44.5658 -73.3725 44° Northeast 238 274 2,600 -660 Descending Boston Center
07:37AM 44.5581 -73.2994 98° East 190 219 2,200 -480 Descending Boston Center
07:38AM 44.5272 -73.2436 128° Southeast 177 204 1,700 -600 Descending Boston Center
07:39AM 44.5025 -73.2025 130° Southeast 157 181 1,000 -660 Descending Boston Center
07:40AM 44.4800 -73.1675 132° Southeast 130 150 400 -300 Descending Boston Center
07:41AM 44.4675 -73.1469 130° Southeast 111 128 400 9,300 Level Boston Center
07:42AM 44.4406 -73.1089 135° Southeast 111 128 19,000 9,300 Climbing Boston Center
07:43AM 44.4200 -73.0794 134° Southeast 111 128 19,000  Level Boston Center